Time;durP1;ratioP1;P1;durP2;ratioP2;P2;SDS_P1;SDS_P2;PMS_P1;PMS_P2;Temp;Humidity;BMP_temperature;BMP_pressure;BME280_temperature;BME280_humidity;BME280_pressure;Samples;Min_cycle;Max_cycle;Signal;HPM_P1;HPM_P2
2020/12/06 00:01:57;;;;;;;13.02;6.95;;;-1.00;79.30;;;;;;5053585;28;20048;-64
2020/12/06 00:04:27;;;;;;;12.15;6.47;;;-1.00;79.30;;;;;;5053927;28;20025;-64
2020/12/06 00:06:53;;;;;;;16.95;7.50;;;-1.00;79.30;;;;;;5053470;28;20041;-64
2020/12/06 00:09:19;;;;;;;14.35;6.53;;;-0.90;79.40;;;;;;5055609;28;20083;-64
2020/12/06 00:11:44;;;;;;;14.50;6.47;;;-1.00;79.40;;;;;;5055418;28;20104;-64
2020/12/06 00:14:10;;;;;;;12.07;6.57;;;-1.00;79.30;;;;;;5053893;28;20032;-64
2020/12/06 00:16:36;;;;;;;16.75;7.07;;;-1.00;79.20;;;;;;5054945;28;20052;-64
2020/12/06 00:19:02;;;;;;;12.98;6.40;;;-1.00;79.20;;;;;;5055718;28;20025;-64
2020/12/06 00:21:27;;;;;;;13.25;5.88;;;-1.00;79.20;;;;;;5054829;28;20040;-64
2020/12/06 00:23:53;;;;;;;14.68;6.85;;;-1.00;79.30;;;;;;5055085;28;20344;-64
2020/12/06 00:26:21;;;;;;;23.42;8.32;;;-1.00;79.30;;;;;;5055028;28;20028;-64
2020/12/06 00:28:48;;;;;;;12.65;6.35;;;-1.00;79.20;;;;;;5053355;28;20040;-64
2020/12/06 00:31:13;;;;;;;15.70;7.10;;;-1.10;79.20;;;;;;5054689;28;20028;-63
2020/12/06 00:33:40;;;;;;;13.68;6.63;;;-1.00;79.30;;;;;;5054861;28;20151;-63
2020/12/06 00:36:09;;;;;;;16.92;7.25;;;-1.10;79.20;;;;;;5054373;28;20032;-63
2020/12/06 00:38:35;;;;;;;13.80;6.88;;;-1.10;79.20;;;;;;5054515;28;20029;-64
2020/12/06 00:41:01;;;;;;;11.45;7.22;;;-1.10;79.20;;;;;;5053235;28;20028;-63
2020/12/06 00:43:27;;;;;;;13.02;6.57;;;-1.10;79.10;;;;;;5054498;28;20052;-63
2020/12/06 00:45:52;;;;;;;15.63;6.97;;;-1.10;79.30;;;;;;5054388;28;20025;-65
2020/12/06 00:48:18;;;;;;;15.38;7.18;;;-1.10;79.30;;;;;;5054313;28;20033;-65
2020/12/06 00:50:44;;;;;;;13.63;7.35;;;-1.10;79.30;;;;;;5054303;28;20029;-65
2020/12/06 00:53:09;;;;;;;17.65;7.22;;;-1.10;79.30;;;;;;5053580;28;20033;-65
2020/12/06 00:55:35;;;;;;;11.93;6.53;;;-1.10;79.30;;;;;;5052996;28;20028;-64
2020/12/06 00:58:01;;;;;;;10.75;6.20;;;-1.10;79.20;;;;;;5054144;28;20074;-63
2020/12/06 01:00:26;;;;;;;13.32;8.18;;;-1.10;79.30;;;;;;5054133;28;20037;-63
2020/12/06 01:02:52;;;;;;;15.25;7.05;;;-1.20;79.00;;;;;;5054435;28;20049;-63
2020/12/06 01:05:18;;;;;;;15.32;7.95;;;-1.10;79.20;;;;;;5053853;28;20025;-64
2020/12/06 01:07:44;;;;;;;12.63;6.63;;;-1.20;79.00;;;;;;5053687;28;20029;-63
2020/12/06 01:10:11;;;;;;;15.60;6.72;;;-1.20;79.00;;;;;;5054074;28;20021;-64
2020/12/06 01:12:38;;;;;;;12.55;7.07;;;-1.20;78.90;;;;;;5053915;28;20530;-63
2020/12/06 01:15:06;;;;;;;17.77;7.28;;;-1.20;78.90;;;;;;5053858;28;20036;-63
2020/12/06 01:17:32;;;;;;;15.27;7.53;;;-1.20;78.90;;;;;;5053972;28;20108;-63
2020/12/06 01:19:57;;;;;;;18.98;8.82;;;-1.20;79.00;;;;;;5052700;28;20063;-63
2020/12/06 01:22:23;;;;;;;15.40;7.50;;;-1.30;78.80;;;;;;5053939;28;20581;-63
2020/12/06 01:24:49;;;;;;;14.30;6.57;;;-1.30;78.80;;;;;;5054049;28;20025;-64
2020/12/06 01:27:16;;;;;;;11.55;6.40;;;-1.30;78.90;;;;;;5052499;28;20395;-64
2020/12/06 01:29:42;;;;;;;21.42;8.10;;;-1.30;78.90;;;;;;5052536;28;20036;-64
2020/12/06 01:32:07;;;;;;;19.15;9.65;;;-1.30;79.00;;;;;;5053724;28;20033;-64
2020/12/06 01:34:33;;;;;;;15.43;10.10;;;-1.30;78.90;;;;;;5053530;28;20091;-64
2020/12/06 01:36:59;;;;;;;16.48;9.50;;;-1.30;78.80;;;;;;5053725;28;20083;-64
2020/12/06 01:39:25;;;;;;;15.95;7.93;;;-1.30;78.70;;;;;;5053950;28;20090;-64
2020/12/06 01:41:57;;;;;;;15.55;6.93;;;-1.30;78.90;;;;;;5053798;28;20029;-64
2020/12/06 01:44:26;;;;;;;15.63;6.95;;;-1.30;78.80;;;;;;5054822;28;20395;-64
2020/12/06 01:46:53;;;;;;;10.73;5.97;;;-1.40;78.60;;;;;;5053480;28;20029;-64
2020/12/06 01:49:35;;;;;;;17.17;6.75;;;-1.40;78.70;;;;;;5053812;28;20033;-64
2020/12/06 01:52:02;;;;;;;19.77;6.13;;;-1.40;79.30;;;;;;5053646;28;20025;-64
2020/12/06 01:54:28;;;;;;;13.63;6.18;;;-1.40;78.50;;;;;;5052158;28;20036;-64
2020/12/06 01:56:54;;;;;;;15.27;6.40;;;-1.40;78.20;;;;;;5053727;28;20093;-64
2020/12/06 01:59:20;;;;;;;17.35;6.68;;;-1.40;78.10;;;;;;5052156;28;20025;-65
2020/12/06 02:01:55;;;;;;;10.98;5.18;;;-1.40;78.00;;;;;;5053253;28;20053;-65
2020/12/06 02:04:21;;;;;;;11.27;6.05;;;-1.40;78.10;;;;;;5053469;28;20116;-64
2020/12/06 02:06:47;;;;;;;12.38;6.53;;;-1.40;78.10;;;;;;5053377;28;20467;-64
2020/12/06 02:09:13;;;;;;;12.40;5.50;;;-1.40;78.00;;;;;;5053423;28;20158;-64
2020/12/06 02:11:39;;;;;;;14.55;6.93;;;-1.40;77.80;;;;;;5053355;28;20060;-64
2020/12/06 02:14:05;;;;;;;11.52;5.88;;;-1.50;77.70;;;;;;5053198;28;20029;-64
2020/12/06 02:16:31;;;;;;;11.52;6.63;;;-1.50;77.80;;;;;;5053183;28;20044;-64
2020/12/06 02:18:56;;;;;;;14.60;6.68;;;-1.50;77.90;;;;;;5053620;28;20126;-64
2020/12/06 02:21:22;;;;;;;10.65;5.63;;;-1.40;78.00;;;;;;5057192;28;20032;-64
2020/12/06 02:23:48;;;;;;;11.73;6.65;;;-1.50;77.90;;;;;;5057096;28;20028;-64
2020/12/06 02:26:13;;;;;;;18.27;7.93;;;-1.50;77.90;;;;;;5057000;28;20053;-65
2020/12/06 02:28:40;;;;;;;13.00;6.05;;;-1.50;78.00;;;;;;5056951;28;20043;-64
2020/12/06 02:31:05;;;;;;;13.23;6.78;;;-1.50;77.90;;;;;;5057007;28;20029;-64
2020/12/06 02:33:31;;;;;;;13.10;6.20;;;-1.50;77.80;;;;;;5057098;28;20025;-64
2020/12/06 02:35:57;;;;;;;16.15;7.40;;;-1.50;77.80;;;;;;5056909;28;20106;-64
2020/12/06 02:38:22;;;;;;;11.77;7.03;;;-1.50;77.90;;;;;;5056766;28;20368;-64
2020/12/06 02:40:48;;;;;;;15.43;6.80;;;-1.50;78.00;;;;;;5056831;28;20021;-65
2020/12/06 02:43:14;;;;;;;12.00;6.00;;;-1.50;77.90;;;;;;5057377;28;20467;-65
2020/12/06 02:45:39;;;;;;;9.65;5.65;;;-1.50;77.80;;;;;;5056753;28;20039;-64
2020/12/06 02:48:05;;;;;;;12.60;5.88;;;-1.50;77.70;;;;;;5056728;28;20513;-64
2020/12/06 02:50:31;;;;;;;17.25;7.90;;;-1.60;77.50;;;;;;5056882;28;20036;-64
2020/12/06 02:52:57;;;;;;;14.05;5.60;;;-1.60;77.50;;;;;;5056626;28;20364;-64
2020/12/06 02:55:27;;;;;;;11.77;5.85;;;-1.60;77.70;;;;;;5056501;28;20021;-64
2020/12/06 02:57:53;;;;;;;14.50;6.63;;;-1.60;77.60;;;;;;5056508;28;20025;-63
2020/12/06 03:00:19;;;;;;;18.05;7.70;;;-1.60;77.50;;;;;;5055221;28;20031;-64
2020/12/06 03:02:44;;;;;;;14.13;6.90;;;-1.60;77.50;;;;;;5056428;28;20052;-64
2020/12/06 03:05:10;;;;;;;10.90;6.43;;;-1.60;77.50;;;;;;5056335;28;20112;-64
2020/12/06 03:07:36;;;;;;;11.70;6.50;;;-1.60;77.50;;;;;;5056350;28;20126;-64
2020/12/06 03:10:06;;;;;;;14.30;6.43;;;-1.60;77.50;;;;;;5056227;28;20064;-64
2020/12/06 03:12:36;;;;;;;12.13;6.30;;;-1.60;77.40;;;;;;5056558;28;20022;-64
2020/12/06 03:15:02;;;;;;;13.13;6.00;;;-1.60;77.50;;;;;;5056544;28;20029;-64
2020/12/06 03:17:28;;;;;;;12.00;6.10;;;-1.60;77.40;;;;;;5056301;28;20029;-64
2020/12/06 03:19:54;;;;;;;11.98;7.15;;;-1.60;77.40;;;;;;5056094;28;20505;-64
2020/12/06 03:22:20;;;;;;;12.57;6.30;;;-1.60;77.30;;;;;;5056312;28;20053;-64
2020/12/06 03:24:45;;;;;;;14.52;6.78;;;-1.60;77.40;;;;;;5056008;28;20025;-64
2020/12/06 03:27:11;;;;;;;15.77;6.45;;;-1.60;77.60;;;;;;5056069;28;20092;-64
2020/12/06 03:29:37;;;;;;;10.60;5.45;;;-1.60;78.20;;;;;;5055764;28;20390;-64
2020/12/06 03:32:03;;;;;;;14.20;5.75;;;-1.60;77.70;;;;;;5055417;28;20516;-65
2020/12/06 03:34:28;;;;;;;14.20;6.55;;;-1.60;77.70;;;;;;5055811;28;20032;-65
2020/12/06 03:36:54;;;;;;;12.30;6.10;;;-1.60;77.50;;;;;;5055578;28;20032;-64
2020/12/06 03:39:20;;;;;;;11.68;5.32;;;-1.60;77.50;;;;;;5055614;28;20025;-64
2020/12/06 03:41:46;;;;;;;10.25;5.18;;;-1.70;77.40;;;;;;5055916;28;20036;-64
2020/12/06 03:44:12;;;;;;;13.75;6.72;;;-1.70;77.50;;;;;;5054431;28;20382;-64
2020/12/06 03:46:38;;;;;;;14.25;6.18;;;-1.70;77.50;;;;;;5055514;28;20029;-64
2020/12/06 03:49:04;;;;;;;13.35;6.10;;;-1.70;77.50;;;;;;5055504;28;20032;-63
2020/12/06 03:51:30;;;;;;;8.50;5.22;;;-1.70;77.50;;;;;;5054272;28;20021;-63
2020/12/06 03:53:56;;;;;;;12.30;6.53;;;-1.70;77.30;;;;;;5055352;28;20032;-63
2020/12/06 03:56:21;;;;;;;10.00;5.20;;;-1.80;77.30;;;;;;5055418;28;20104;-63
2020/12/06 03:58:47;;;;;;;13.15;5.63;;;-1.80;77.30;;;;;;5055394;28;20028;-63
2020/12/06 04:01:13;;;;;;;11.15;6.03;;;-1.80;77.30;;;;;;5054941;28;20417;-64
2020/12/06 04:03:38;;;;;;;11.18;5.07;;;-1.80;77.30;;;;;;5055303;28;20101;-64
2020/12/06 04:06:04;;;;;;;11.95;5.45;;;-1.90;77.20;;;;;;5053915;28;20140;-64
2020/12/06 04:08:30;;;;;;;11.80;6.25;;;-1.90;77.30;;;;;;5053750;28;20039;-64
2020/12/06 04:10:55;;;;;;;11.38;6.53;;;-1.90;77.20;;;;;;5054932;28;20083;-64
2020/12/06 04:13:21;;;;;;;7.10;4.68;;;-1.90;77.30;;;;;;5055038;28;20060;-64
2020/12/06 04:15:47;;;;;;;10.45;5.68;;;-1.90;77.20;;;;;;5055097;28;20434;-64
2020/12/06 04:18:12;;;;;;;11.65;5.90;;;-1.90;77.20;;;;;;5054681;28;20033;-64
2020/12/06 04:20:38;;;;;;;15.10;5.88;;;-2.00;77.00;;;;;;5053620;28;20025;-64
2020/12/06 04:23:04;;;;;;;12.07;5.60;;;-2.00;77.10;;;;;;5055122;28;20052;-64
2020/12/06 04:25:30;;;;;;;15.75;5.80;;;-2.00;77.00;;;;;;5053553;28;20116;-64
2020/12/06 04:27:55;;;;;;;10.18;5.95;;;-2.00;77.00;;;;;;5054471;28;20029;-64
2020/12/06 04:30:21;;;;;;;11.18;5.85;;;-2.10;76.90;;;;;;5055022;28;20111;-64
2020/12/06 04:32:47;;;;;;;9.43;5.93;;;-2.10;76.90;;;;;;5054477;28;20041;-64
2020/12/06 04:35:12;;;;;;;12.48;6.40;;;-2.10;76.80;;;;;;5054594;28;20039;-64
2020/12/06 04:37:38;;;;;;;10.88;6.05;;;-2.10;76.90;;;;;;5055075;28;20035;-64
2020/12/06 04:40:04;;;;;;;12.30;5.50;;;-2.10;76.90;;;;;;5053349;28;20029;-64
2020/12/06 04:42:31;;;;;;;10.20;5.38;;;-2.20;76.90;;;;;;5054211;28;20025;-64
2020/12/06 04:44:57;;;;;;;8.23;5.03;;;-2.20;76.90;;;;;;5054467;28;20723;-64
2020/12/06 04:47:51;;;;;;;15.55;6.82;;;-2.20;76.80;;;;;;5054386;28;20108;-64
2020/12/06 04:50:31;;;;;;;22.23;9.77;;;-2.20;77.00;;;;;;5054561;28;20033;-64
2020/12/06 04:52:59;;;;;;;12.40;5.47;;;-2.20;77.00;;;;;;5053040;28;20033;-64
2020/12/06 04:55:26;;;;;;;13.98;6.68;;;-2.20;76.90;;;;;;5054235;28;20032;-64
2020/12/06 04:57:55;;;;;;;16.33;6.80;;;-2.30;76.80;;;;;;5054227;28;20037;-64
2020/12/06 05:00:31;;;;;;;13.18;6.40;;;-2.20;76.90;;;;;;5054131;28;20025;-64
2020/12/06 05:03:10;;;;;;;9.70;5.32;;;-2.30;76.90;;;;;;5054910;28;20049;-64
2020/12/06 05:05:41;;;;;;;12.90;6.03;;;-2.30;77.00;;;;;;5054247;28;20029;-64
2020/12/06 05:08:12;;;;;;;12.63;5.82;;;-2.30;77.00;;;;;;5054036;28;20120;-64
2020/12/06 05:10:41;;;;;;;19.35;5.90;;;-2.30;76.90;;;;;;5054064;28;20033;-64
2020/12/06 05:13:08;;;;;;;13.00;5.50;;;-2.30;76.90;;;;;;5053992;28;20025;-64
2020/12/06 05:15:34;;;;;;;12.57;5.97;;;-2.30;77.00;;;;;;5054197;28;20410;-65
2020/12/06 05:18:00;;;;;;;14.00;5.90;;;-2.30;76.90;;;;;;5041235;28;20056;-65
2020/12/06 05:20:27;;;;;;;28.15;11.60;;;-2.30;76.90;;;;;;5064838;28;20024;-65
2020/12/06 05:22:53;;;;;;;14.60;7.47;;;-2.40;76.80;;;;;;5052864;28;20039;-65
2020/12/06 05:25:19;;;;;;;14.00;7.13;;;-2.40;76.80;;;;;;5051562;28;20036;-66
2020/12/06 05:27:44;;;;;;;10.80;5.65;;;-2.40;76.80;;;;;;5052258;28;20028;-64
2020/12/06 05:30:11;;;;;;;12.38;6.50;;;-2.40;76.90;;;;;;5053032;28;20041;-65
2020/12/06 05:32:37;;;;;;;34.63;13.10;;;-2.40;77.00;;;;;;5051168;28;20148;-65
2020/12/06 05:35:04;;;;;;;14.35;7.28;;;-2.40;77.00;;;;;;5051944;28;20052;-65
2020/12/06 05:37:30;;;;;;;19.08;8.85;;;-2.40;77.10;;;;;;5053218;28;20025;-64
2020/12/06 05:40:05;;;;;;;21.77;8.40;;;-2.30;77.30;;;;;;5053602;28;20029;-64
2020/12/06 05:42:32;;;;;;;9.80;5.32;;;-2.30;77.60;;;;;;5052381;28;20029;-64
2020/12/06 05:44:59;;;;;;;10.25;5.40;;;-2.10;77.80;;;;;;5053578;28;20040;-64
2020/12/06 05:47:25;;;;;;;9.88;5.55;;;-1.90;78.00;;;;;;5053498;28;20459;-64
2020/12/06 05:49:51;;;;;;;9.80;4.95;;;-1.70;78.60;;;;;;5053579;28;20037;-63
2020/12/06 05:52:18;;;;;;;8.00;4.63;;;-1.50;77.90;;;;;;5053507;28;20040;-64
2020/12/06 05:54:45;;;;;;;9.48;4.68;;;-1.30;77.60;;;;;;5056276;28;20033;-64
2020/12/06 05:57:12;;;;;;;9.80;5.35;;;-1.00;77.50;;;;;;5057818;28;20029;-64
2020/12/06 05:59:39;;;;;;;8.90;4.30;;;-0.70;77.40;;;;;;5056267;28;20106;-64
2020/12/06 06:02:07;;;;;;;11.32;5.53;;;-0.40;76.90;;;;;;5055578;28;20125;-64
2020/12/06 06:04:38;;;;;;;12.10;5.28;;;-0.20;76.00;;;;;;5057465;28;20028;-64
2020/12/06 06:07:06;;;;;;;10.05;5.63;;;0.10;76.10;;;;;;5056294;28;20045;-64
2020/12/06 06:09:40;;;;;;;12.93;6.63;;;0.40;75.80;;;;;;5057394;28;20111;-64
2020/12/06 06:12:46;;;;;;;11.32;5.38;;;0.60;75.10;;;;;;5056464;28;20375;-64
2020/12/06 06:15:12;;;;;;;23.30;10.07;;;0.80;73.10;;;;;;5057051;28;20033;-65
2020/12/06 06:17:40;;;;;;;21.42;7.10;;;1.00;73.00;;;;;;5055931;28;20036;-65
2020/12/06 06:20:05;;;;;;;14.27;7.18;;;1.20;73.20;;;;;;5057254;28;20435;-65
2020/12/06 06:22:35;;;;;;;20.50;10.02;;;1.60;72.90;;;;;;5057112;28;20052;-65
2020/12/06 06:25:03;;;;;;;20.25;9.65;;;1.90;72.20;;;;;;5057116;28;20025;-65
2020/12/06 06:27:37;;;;;;;13.73;6.53;;;2.10;72.40;;;;;;5056842;28;20041;-65
2020/12/06 06:30:06;;;;;;;13.13;5.95;;;2.50;71.80;;;;;;5056975;28;20033;-65
2020/12/06 06:32:32;;;;;;;16.17;8.70;;;2.70;70.00;;;;;;5057152;28;20044;-65
2020/12/06 06:35:00;;;;;;;14.23;6.78;;;2.70;68.90;;;;;;5057097;28;20021;-65
2020/12/06 06:37:30;;;;;;;12.32;5.75;;;2.80;69.20;;;;;;5055403;28;20119;-65
2020/12/06 06:40:01;;;;;;;11.52;5.47;;;3.00;67.80;;;;;;5056616;28;20029;-65
2020/12/06 06:42:28;;;;;;;13.63;6.45;;;3.10;66.00;;;;;;5056985;28;20063;-65
2020/12/06 06:45:23;;;;;;;13.57;5.85;;;3.20;65.40;;;;;;5056554;28;20064;-65
2020/12/06 06:47:50;;;;;;;17.83;7.43;;;3.20;65.70;;;;;;5050754;28;20036;-65
2020/12/06 06:50:16;;;;;;;17.23;7.30;;;3.50;66.30;;;;;;5055278;28;20056;-66
2020/12/06 06:52:43;;;;;;;10.23;5.55;;;3.70;64.10;;;;;;5055209;28;20036;-65
2020/12/06 06:55:09;;;;;;;13.52;6.70;;;3.70;63.50;;;;;;5055255;28;20389;-65
2020/12/06 06:57:38;;;;;;;12.52;5.22;;;3.80;64.00;;;;;;5055232;28;20039;-65
2020/12/06 07:00:05;;;;;;;13.35;6.90;;;4.00;62.70;;;;;;5055636;28;20078;-65
2020/12/06 07:02:35;;;;;;;16.40;7.38;;;4.10;62.00;;;;;;5056204;28;20072;-65
2020/12/06 07:05:05;;;;;;;14.00;7.30;;;4.20;62.20;;;;;;5054374;28;20060;-65
2020/12/06 07:07:39;;;;;;;32.58;8.85;;;4.30;62.90;;;;;;5054588;28;20459;-65
2020/12/06 07:10:06;;;;;;;10.00;4.80;;;4.40;61.20;;;;;;5056170;28;20083;-65
2020/12/06 07:12:47;;;;;;;17.02;7.97;;;4.50;59.40;;;;;;5056008;28;20124;-65
2020/12/06 07:15:15;;;;;;;11.80;5.90;;;4.50;59.50;;;;;;5055047;28;20024;-66
2020/12/06 07:17:41;;;;;;;13.50;7.28;;;4.60;58.90;;;;;;5055835;28;20025;-65
2020/12/06 07:20:09;;;;;;;20.45;8.38;;;4.70;58.20;;;;;;5055942;28;20100;-66
2020/12/06 07:22:36;;;;;;;14.32;6.57;;;4.90;59.10;;;;;;5055905;28;20063;-65
2020/12/06 07:25:04;;;;;;;12.52;6.03;;;5.10;58.50;;;;;;5055927;28;20025;-65
2020/12/06 07:27:30;;;;;;;15.73;6.43;;;5.20;57.30;;;;;;5055761;28;20032;-65
2020/12/06 07:29:56;;;;;;;15.60;7.80;;;5.30;57.50;;;;;;5054529;28;20126;-65
2020/12/06 07:32:22;;;;;;;15.77;7.50;;;5.50;57.90;;;;;;5054458;28;20104;-65
2020/12/06 07:34:49;;;;;;;13.32;6.93;;;5.60;57.10;;;;;;5055792;28;20075;-65
2020/12/06 07:37:14;;;;;;;11.93;6.03;;;5.70;56.10;;;;;;5055507;28;20410;-65
2020/12/06 07:39:45;;;;;;;19.70;8.15;;;5.80;56.50;;;;;;5055701;28;20029;-66
2020/12/06 07:42:17;;;;;;;41.95;14.77;;;5.80;55.80;;;;;;5055689;28;20083;-66
2020/12/06 07:44:44;;;;;;;23.45;9.98;;;5.90;56.00;;;;;;5055669;28;20029;-66
2020/12/06 07:47:11;;;;;;;17.05;8.23;;;6.00;55.70;;;;;;5055726;28;20119;-66
2020/12/06 07:49:57;;;;;;;17.15;8.02;;;6.00;54.60;;;;;;5054018;28;20059;-64
2020/12/06 07:52:34;;;;;;;19.55;8.57;;;6.00;54.30;;;;;;5055732;28;20464;-66
2020/12/06 07:55:07;;;;;;;23.58;10.95;;;6.00;54.60;;;;;;5055254;28;20071;-66
2020/12/06 07:57:48;;;;;;;17.98;8.93;;;6.00;53.50;;;;;;5054035;28;20029;-64
2020/12/06 08:00:19;;;;;;;11.07;6.30;;;6.00;53.80;;;;;;5054468;28;20025;-65
2020/12/06 08:02:53;;;;;;;9.55;5.38;;;6.10;53.90;;;;;;5054454;28;20048;-65
2020/12/06 08:05:21;;;;;;;9.85;5.53;;;6.00;52.50;;;;;;5055194;28;20079;-65
2020/12/06 08:07:52;;;;;;;11.18;6.38;;;6.00;52.40;;;;;;5053972;28;20043;-65
2020/12/06 08:10:19;;;;;;;11.77;5.57;;;5.80;51.70;;;;;;5054877;28;20029;-66
2020/12/06 08:12:47;;;;;;;12.38;6.47;;;5.90;52.80;;;;;;5054823;28;20033;-65
2020/12/06 08:15:13;;;;;;;21.80;8.25;;;6.00;52.30;;;;;;5053682;28;20029;-65
2020/12/06 08:17:43;;;;;;;12.57;6.25;;;6.00;52.30;;;;;;5052621;28;20029;-65
2020/12/06 08:20:14;;;;;;;17.23;8.25;;;6.20;51.30;;;;;;5054878;28;20021;-65
2020/12/06 08:22:53;;;;;;;18.35;7.50;;;6.20;51.40;;;;;;5053478;28;20112;-66
2020/12/06 08:25:21;;;;;;;15.40;7.90;;;6.30;51.50;;;;;;5054764;28;20057;-66
2020/12/06 08:27:48;;;;;;;25.63;13.43;;;6.30;51.30;;;;;;5054737;28;20075;-65
2020/12/06 08:30:19;;;;;;;20.73;10.25;;;6.40;51.00;;;;;;5054822;28;20082;-65
2020/12/06 08:32:59;;;;;;;14.05;6.65;;;6.40;50.40;;;;;;5054693;28;20033;-67
2020/12/06 08:35:54;;;;;;;12.85;7.07;;;6.30;49.50;;;;;;5048902;28;20443;-68
2020/12/06 08:38:29;;;;;;;14.77;7.85;;;6.30;49.80;;;;;;5057668;28;20032;-65
2020/12/06 08:41:05;;;;;;;;;;;6.20;49.50;;;;;;5062491;28;20471;-70
2020/12/06 08:43:55;;;;;;;15.93;8.90;;;6.20;50.50;;;;;;5052007;28;20257;-66
2020/12/06 08:46:25;;;;;;;14.55;6.88;;;6.50;50.80;;;;;;5061150;28;20495;-68
2020/12/06 08:48:52;;;;;;;12.75;7.85;;;6.50;49.30;;;;;;5041672;28;20037;-66
2020/12/06 08:51:35;;;;;;;14.68;6.95;;;6.40;49.50;;;;;;5049008;28;20037;-66
2020/12/06 08:54:02;;;;;;;12.60;6.78;;;6.50;49.80;;;;;;5037522;28;20032;-66
2020/12/06 08:56:29;;;;;;;12.93;6.80;;;6.60;50.00;;;;;;5037341;28;20506;-66
2020/12/06 08:58:59;;;;;;;11.82;6.88;;;6.80;50.00;;;;;;5042758;28;20028;-67
2020/12/06 09:01:25;;;;;;;14.38;7.47;;;6.70;48.40;;;;;;5045910;28;20051;-66
2020/12/06 09:03:51;;;;;;;15.45;7.68;;;6.60;48.80;;;;;;5040026;28;20028;-68
2020/12/06 09:06:17;;;;;;;16.98;7.97;;;6.60;48.60;;;;;;5049457;28;20029;-67
2020/12/06 09:08:44;;;;;;;13.68;6.90;;;6.70;48.70;;;;;;5048468;28;20048;-66
2020/12/06 09:11:21;;;;;;;9.43;5.57;;;6.70;48.00;;;;;;5039452;28;20025;-65
2020/12/06 09:13:47;;;;;;;12.95;6.35;;;6.60;47.90;;;;;;5040341;28;20037;-66
2020/12/06 09:16:14;;;;;;;14.07;7.05;;;6.60;47.60;;;;;;5044774;28;20017;-70
2020/12/06 09:18:40;;;;;;;8.63;4.85;;;6.60;48.40;;;;;;5033967;28;20491;-67
2020/12/06 09:21:07;;;;;;;16.55;7.47;;;6.60;47.70;;;;;;5033653;28;20108;-68
2020/12/06 09:23:33;;;;;;;15.15;7.55;;;6.60;47.50;;;;;;5032566;28;20033;-65
2020/12/06 09:26:00;;;;;;;17.63;7.38;;;6.50;47.20;;;;;;5034451;28;20481;-67
2020/12/06 09:28:26;;;;;;;21.92;10.02;;;6.40;46.60;;;;;;5031458;28;20494;-64
2020/12/06 09:30:52;;;;;;;26.98;17.70;;;6.30;47.80;;;;;;5048968;28;20036;-70
2020/12/06 09:33:18;;;;;;;57.47;20.02;;;6.20;47.00;;;;;;5045248;28;20025;-64
2020/12/06 09:35:44;;;;;;;13.05;6.75;;;6.30;47.70;;;;;;5038024;28;20040;-64
2020/12/06 09:38:10;;;;;;;15.98;7.38;;;6.30;47.50;;;;;;5041252;28;20013;-65
2020/12/06 09:40:35;;;;;;;21.80;9.43;;;6.40;47.50;;;;;;5040227;28;20433;-65
2020/12/06 09:43:01;;;;;;;25.38;11.32;;;6.50;47.80;;;;;;5044076;28;20027;-65
2020/12/06 09:45:27;;;;;;;16.27;7.65;;;6.70;47.90;;;;;;5041450;28;20064;-65
2020/12/06 09:47:52;;;;;;;17.27;8.50;;;6.70;47.20;;;;;;5040443;28;20025;-65
2020/12/06 09:50:18;;;;;;;13.40;6.90;;;6.90;47.50;;;;;;5033617;28;20433;-64
2020/12/06 09:52:44;;;;;;;12.73;6.75;;;7.00;46.60;;;;;;5034101;28;20029;-64
2020/12/06 09:55:09;;;;;;;15.32;7.30;;;7.00;46.40;;;;;;5036155;28;20064;-64
2020/12/06 09:57:35;;;;;;;23.35;10.93;;;6.90;46.50;;;;;;5044213;28;20033;-64
2020/12/06 10:00:01;;;;;;;12.65;6.72;;;7.10;47.90;;;;;;5038004;28;20022;-64
2020/12/06 10:02:27;;;;;;;17.70;9.50;;;7.30;46.80;;;;;;5050119;28;20048;-64
2020/12/06 10:04:55;;;;;;;12.52;6.03;;;7.40;46.50;;;;;;5053928;28;20175;-64
2020/12/06 10:07:21;;;;;;;13.25;7.18;;;7.30;45.50;;;;;;5053050;28;20056;-64
2020/12/06 10:09:47;;;;;;;12.02;6.03;;;7.20;45.70;;;;;;5052603;28;20464;-64
2020/12/06 10:12:13;;;;;;;19.55;8.73;;;7.00;45.30;;;;;;5053286;28;20039;-64
2020/12/06 10:14:39;;;;;;;16.92;7.15;;;6.90;45.30;;;;;;5052959;28;20029;-64
2020/12/06 10:17:05;;;;;;;14.85;6.40;;;6.80;45.10;;;;;;5051746;28;20364;-63
2020/12/06 10:19:30;;;;;;;12.25;6.95;;;6.50;44.30;;;;;;5050999;28;20029;-63
2020/12/06 10:21:56;;;;;;;19.75;8.57;;;6.20;45.50;;;;;;5049805;28;20060;-63
2020/12/06 10:24:22;;;;;;;11.45;6.50;;;6.20;46.30;;;;;;5038970;28;20383;-64
2020/12/06 10:26:56;;;;;;;19.73;10.13;;;6.30;45.80;;;;;;5042115;28;20067;-64
2020/12/06 10:29:22;;;;;;;12.10;5.53;;;6.20;45.70;;;;;;5043537;28;20046;-69
2020/12/06 10:31:50;;;;;;;17.52;7.65;;;6.30;46.00;;;;;;5039395;28;20017;-67
2020/12/06 10:34:16;;;;;;;23.88;10.27;;;6.30;45.80;;;;;;5037978;28;20033;-67
2020/12/06 10:36:42;;;;;;;26.50;11.23;;;6.40;46.10;;;;;;5036520;28;20033;-68
2020/12/06 10:39:08;;;;;;;27.02;13.77;;;6.50;46.10;;;;;;5040018;28;20041;-67
2020/12/06 10:41:33;;;;;;;18.67;8.40;;;6.70;46.40;;;;;;5044776;28;20032;-64
2020/12/06 10:43:59;;;;;;;12.15;5.97;;;6.90;45.90;;;;;;5045041;28;20494;-64
2020/12/06 10:46:26;;;;;;;14.30;6.60;;;6.90;45.50;;;;;;5039958;28;20021;-64
2020/12/06 10:48:52;;;;;;;9.98;5.20;;;6.70;45.40;;;;;;5042873;28;20034;-65
2020/12/06 10:51:18;;;;;;;13.90;6.78;;;6.80;45.50;;;;;;5046944;28;20024;-65
2020/12/06 10:53:44;;;;;;;11.05;5.85;;;6.70;45.40;;;;;;5048939;28;20476;-64
2020/12/06 10:56:10;;;;;;;13.23;6.63;;;6.50;44.70;;;;;;5038460;28;20021;-65
2020/12/06 10:58:37;;;;;;;10.00;5.20;;;6.40;45.50;;;;;;5044610;28;20029;-66
2020/12/06 11:01:03;;;;;;;11.52;7.03;;;6.40;45.00;;;;;;5048294;28;20434;-66
2020/12/06 11:03:29;;;;;;;11.63;5.90;;;6.30;45.30;;;;;;5049511;28;20052;-65
2020/12/06 11:05:55;;;;;;;15.73;5.50;;;6.30;44.90;;;;;;5021872;28;20121;-65
2020/12/06 11:08:23;;;;;;;9.85;5.40;;;6.30;45.70;;;;;;5046570;28;20071;-65
2020/12/06 11:10:49;;;;;;;11.77;5.78;;;6.30;45.10;;;;;;5043258;28;20021;-64
2020/12/06 11:13:14;;;;;;;10.80;5.93;;;6.30;45.20;;;;;;5052285;28;20022;-64
2020/12/06 11:15:40;;;;;;;17.02;8.77;;;6.20;45.30;;;;;;5072371;28;20098;-64
2020/12/06 11:18:06;;;;;;;11.48;5.80;;;6.10;45.10;;;;;;5070511;28;20032;-65
2020/12/06 11:20:32;;;;;;;15.45;7.35;;;6.10;45.20;;;;;;5056675;28;20029;-64
2020/12/06 11:22:57;;;;;;;17.60;8.40;;;5.90;45.20;;;;;;5042635;28;20033;-65
2020/12/06 11:25:23;;;;;;;17.98;9.68;;;5.70;45.10;;;;;;5050312;28;20109;-65
2020/12/06 11:27:49;;;;;;;16.23;7.97;;;5.60;45.10;;;;;;5053796;28;20485;-65
2020/12/06 11:30:15;;;;;;;20.08;10.50;;;5.70;46.20;;;;;;5049285;28;20041;-64
2020/12/06 11:32:41;;;;;;;10.38;5.93;;;5.80;46.40;;;;;;5040085;28;20467;-65
2020/12/06 11:35:06;;;;;;;13.52;5.75;;;5.90;45.70;;;;;;5038115;28;20088;-66
2020/12/06 11:37:32;;;;;;;11.50;6.85;;;5.80;45.80;;;;;;5051265;28;20025;-67
2020/12/06 11:39:58;;;;;;;10.43;4.88;;;5.80;46.00;;;;;;5065087;28;20490;-68
2020/12/06 11:42:24;;;;;;;12.02;6.95;;;5.70;45.60;;;;;;5053123;28;20028;-75
2020/12/06 11:44:49;;;;;;;16.42;8.75;;;5.50;45.70;;;;;;5053295;28;20103;-67
2020/12/06 11:47:15;;;;;;;16.77;7.72;;;5.50;46.00;;;;;;5039761;28;20051;-70
2020/12/06 11:49:41;;;;;;;13.80;6.85;;;5.40;45.90;;;;;;5047179;28;20080;-71
2020/12/06 11:52:08;;;;;;;18.45;9.80;;;5.20;45.90;;;;;;5052182;28;20039;-68
2020/12/06 11:54:35;;;;;;;13.95;6.35;;;5.30;46.60;;;;;;5034239;28;20033;-67
2020/12/06 11:57:00;;;;;;;14.20;6.47;;;5.30;46.40;;;;;;5033514;28;20030;-66
2020/12/06 11:59:26;;;;;;;12.82;6.13;;;5.20;46.20;;;;;;5048313;28;20384;-66
2020/12/06 12:01:52;;;;;;;15.10;6.78;;;5.10;46.20;;;;;;5051501;28;20410;-66
2020/12/06 12:04:18;;;;;;;11.88;5.78;;;5.10;46.60;;;;;;5051703;28;20104;-66
2020/12/06 12:06:44;;;;;;;13.20;5.63;;;5.10;46.60;;;;;;5052974;28;20124;-67
2020/12/06 12:09:09;;;;;;;10.32;5.60;;;5.00;46.60;;;;;;5053218;28;20029;-65
2020/12/06 12:11:35;;;;;;;12.38;6.38;;;5.00;46.90;;;;;;5053227;28;20470;-67
2020/12/06 12:14:01;;;;;;;8.38;4.55;;;5.00;47.10;;;;;;5053968;28;20448;-65
2020/12/06 12:16:26;;;;;;;15.52;6.50;;;4.80;46.60;;;;;;5053098;28;20083;-64
2020/12/06 12:18:52;;;;;;;11.35;6.50;;;4.80;47.50;;;;;;5054477;28;20025;-64
2020/12/06 12:21:18;;;;;;;25.25;13.45;;;4.70;47.30;;;;;;5052994;28;20520;-65
2020/12/06 12:23:44;;;;;;;12.45;6.75;;;4.70;47.50;;;;;;5054132;28;20055;-64
2020/12/06 12:26:09;;;;;;;12.18;7.30;;;4.60;47.30;;;;;;5054095;28;20029;-64
2020/12/06 12:28:35;;;;;;;18.42;7.65;;;4.50;48.60;;;;;;5053992;28;20140;-64
2020/12/06 12:31:01;;;;;;;11.38;6.20;;;4.50;48.30;;;;;;5054447;28;20036;-64
2020/12/06 12:33:26;;;;;;;12.05;5.43;;;4.50;48.30;;;;;;5053626;28;20498;-65
2020/12/06 12:35:53;;;;;;;18.67;10.00;;;4.50;48.10;;;;;;5054373;28;20471;-64
2020/12/06 12:38:19;;;;;;;13.82;6.82;;;4.20;48.00;;;;;;5053712;28;20031;-64
2020/12/06 12:40:45;;;;;;;17.38;7.65;;;4.00;48.20;;;;;;5053843;28;20515;-66
2020/12/06 12:43:10;;;;;;;10.52;6.70;;;3.90;48.70;;;;;;5053857;28;20426;-64
2020/12/06 12:45:36;;;;;;;11.88;5.65;;;3.70;48.80;;;;;;5053516;28;20060;-64